sensor_id;sensor_type;location;lat;lon;timestamp;P1;durP1;ratioP1;P2;durP2;ratioP2
58472;SDS011;44775;51.564;5.460;2022-10-18T00:00:23;21.17;;;14.68;;
58472;SDS011;44775;51.564;5.460;2022-10-18T00:02:49;20.02;;;14.52;;
58472;SDS011;44775;51.564;5.460;2022-10-18T00:05:14;19.58;;;14.88;;
58472;SDS011;44775;51.564;5.460;2022-10-18T00:07:39;21.25;;;14.35;;
58472;SDS011;44775;51.564;5.460;2022-10-18T00:10:05;22.95;;;14.73;;
58472;SDS011;44775;51.564;5.460;2022-10-18T00:12:33;20.30;;;15.40;;
58472;SDS011;44775;51.564;5.460;2022-10-18T00:14:59;22.10;;;15.45;;
58472;SDS011;44775;51.564;5.460;2022-10-18T00:17:26;23.38;;;15.30;;
58472;SDS011;44775;51.564;5.460;2022-10-18T00:19:51;23.58;;;15.98;;
58472;SDS011;44775;51.564;5.460;2022-10-18T00:22:17;24.77;;;16.42;;
58472;SDS011;44775;51.564;5.460;2022-10-18T00:24:42;24.42;;;15.27;;
58472;SDS011;44775;51.564;5.460;2022-10-18T00:27:08;22.88;;;15.68;;
58472;SDS011;44775;51.564;5.460;2022-10-18T00:29:33;24.23;;;16.65;;
58472;SDS011;44775;51.564;5.460;2022-10-18T00:31:59;23.33;;;14.73;;
58472;SDS011;44775;51.564;5.460;2022-10-18T00:34:24;23.63;;;15.05;;
58472;SDS011;44775;51.564;5.460;2022-10-18T00:36:49;28.02;;;16.10;;
58472;SDS011;44775;51.564;5.460;2022-10-18T00:39:16;22.27;;;16.05;;
58472;SDS011;44775;51.564;5.460;2022-10-18T00:41:43;23.55;;;15.77;;
58472;SDS011;44775;51.564;5.460;2022-10-18T00:46:36;25.00;;;15.90;;
58472;SDS011;44775;51.564;5.460;2022-10-18T00:49:09;23.98;;;16.65;;
58472;SDS011;44775;51.564;5.460;2022-10-18T00:51:41;26.50;;;15.60;;
58472;SDS011;44775;51.564;5.460;2022-10-18T00:54:11;21.65;;;15.27;;
58472;SDS011;44775;51.564;5.460;2022-10-18T00:56:39;22.23;;;15.48;;
58472;SDS011;44775;51.564;5.460;2022-10-18T00:59:04;21.80;;;15.32;;
58472;SDS011;44775;51.564;5.460;2022-10-18T01:01:32;25.55;;;16.27;;
58472;SDS011;44775;51.564;5.460;2022-10-18T01:03:57;25.27;;;15.82;;
58472;SDS011;44775;51.564;5.460;2022-10-18T01:06:23;21.83;;;15.68;;
58472;SDS011;44775;51.564;5.460;2022-10-18T01:14:18;24.00;;;14.57;;
58472;SDS011;44775;51.564;5.460;2022-10-18T01:17:00;20.77;;;15.35;;
58472;SDS011;44775;51.564;5.460;2022-10-18T01:22:37;21.15;;;15.55;;
58472;SDS011;44775;51.564;5.460;2022-10-18T01:28:38;21.80;;;15.10;;
58472;SDS011;44775;51.564;5.460;2022-10-18T01:30:59;23.25;;;15.80;;
58472;SDS011;44775;51.564;5.460;2022-10-18T01:33:31;24.85;;;16.15;;
58472;SDS011;44775;51.564;5.460;2022-10-18T01:36:00;22.58;;;15.82;;
58472;SDS011;44775;51.564;5.460;2022-10-18T01:38:35;24.33;;;16.13;;
58472;SDS011;44775;51.564;5.460;2022-10-18T01:41:03;30.55;;;15.85;;
58472;SDS011;44775;51.564;5.460;2022-10-18T01:43:30;23.80;;;15.63;;
58472;SDS011;44775;51.564;5.460;2022-10-18T01:45:58;27.13;;;15.90;;
58472;SDS011;44775;51.564;5.460;2022-10-18T01:48:24;20.20;;;15.27;;
58472;SDS011;44775;51.564;5.460;2022-10-18T01:50:51;23.70;;;15.45;;
58472;SDS011;44775;51.564;5.460;2022-10-18T01:53:24;21.98;;;16.13;;
58472;SDS011;44775;51.564;5.460;2022-10-18T01:55:55;22.70;;;16.05;;
58472;SDS011;44775;51.564;5.460;2022-10-18T01:58:37;22.77;;;15.13;;
58472;SDS011;44775;51.564;5.460;2022-10-18T02:03:46;22.48;;;15.50;;
58472;SDS011;44775;51.564;5.460;2022-10-18T02:08:58;21.05;;;15.38;;
58472;SDS011;44775;51.564;5.460;2022-10-18T02:11:30;23.15;;;15.95;;
58472;SDS011;44775;51.564;5.460;2022-10-18T02:14:07;22.25;;;16.25;;
58472;SDS011;44775;51.564;5.460;2022-10-18T02:16:49;20.98;;;15.20;;
58472;SDS011;44775;51.564;5.460;2022-10-18T02:19:19;22.20;;;15.50;;
58472;SDS011;44775;51.564;5.460;2022-10-18T02:21:57;20.15;;;15.45;;
58472;SDS011;44775;51.564;5.460;2022-10-18T02:24:25;22.25;;;15.80;;
58472;SDS011;44775;51.564;5.460;2022-10-18T02:26:55;21.08;;;15.43;;
58472;SDS011;44775;51.564;5.460;2022-10-18T02:29:21;24.38;;;16.05;;
58472;SDS011;44775;51.564;5.460;2022-10-18T02:31:50;21.48;;;16.00;;
58472;SDS011;44775;51.564;5.460;2022-10-18T02:34:28;24.73;;;16.10;;
58472;SDS011;44775;51.564;5.460;2022-10-18T02:37:10;24.67;;;16.23;;
58472;SDS011;44775;51.564;5.460;2022-10-18T02:39:39;19.40;;;15.82;;
58472;SDS011;44775;51.564;5.460;2022-10-18T02:42:09;23.48;;;15.93;;
58472;SDS011;44775;51.564;5.460;2022-10-18T02:44:36;20.17;;;16.08;;
58472;SDS011;44775;51.564;5.460;2022-10-18T02:47:03;22.67;;;16.02;;
58472;SDS011;44775;51.564;5.460;2022-10-18T02:49:29;23.65;;;16.35;;
58472;SDS011;44775;51.564;5.460;2022-10-18T02:51:55;23.98;;;16.80;;
58472;SDS011;44775;51.564;5.460;2022-10-18T02:54:21;22.42;;;17.30;;
58472;SDS011;44775;51.564;5.460;2022-10-18T02:56:46;26.55;;;17.30;;
58472;SDS011;44775;51.564;5.460;2022-10-18T02:59:12;26.55;;;16.63;;
58472;SDS011;44775;51.564;5.460;2022-10-18T03:01:37;23.50;;;17.20;;
58472;SDS011;44775;51.564;5.460;2022-10-18T03:04:03;26.83;;;17.95;;
58472;SDS011;44775;51.564;5.460;2022-10-18T03:06:29;23.80;;;17.23;;
58472;SDS011;44775;51.564;5.460;2022-10-18T03:08:55;23.73;;;17.35;;
58472;SDS011;44775;51.564;5.460;2022-10-18T03:11:20;29.92;;;18.90;;
58472;SDS011;44775;51.564;5.460;2022-10-18T03:13:46;28.35;;;17.75;;
58472;SDS011;44775;51.564;5.460;2022-10-18T03:16:12;23.23;;;16.98;;
58472;SDS011;44775;51.564;5.460;2022-10-18T03:18:37;24.80;;;17.77;;
58472;SDS011;44775;51.564;5.460;2022-10-18T03:21:06;23.23;;;17.10;;
58472;SDS011;44775;51.564;5.460;2022-10-18T03:23:32;22.10;;;15.68;;
58472;SDS011;44775;51.564;5.460;2022-10-18T03:25:57;21.70;;;16.42;;
58472;SDS011;44775;51.564;5.460;2022-10-18T03:28:23;27.00;;;18.20;;
58472;SDS011;44775;51.564;5.460;2022-10-18T03:30:48;23.98;;;16.05;;
58472;SDS011;44775;51.564;5.460;2022-10-18T03:33:14;23.65;;;16.80;;
58472;SDS011;44775;51.564;5.460;2022-10-18T03:35:39;20.02;;;15.50;;
58472;SDS011;44775;51.564;5.460;2022-10-18T03:38:05;23.42;;;16.17;;
58472;SDS011;44775;51.564;5.460;2022-10-18T03:40:30;22.20;;;16.70;;
58472;SDS011;44775;51.564;5.460;2022-10-18T03:42:55;25.83;;;17.20;;
58472;SDS011;44775;51.564;5.460;2022-10-18T03:45:21;26.73;;;17.92;;
58472;SDS011;44775;51.564;5.460;2022-10-18T03:47:46;26.30;;;18.70;;
58472;SDS011;44775;51.564;5.460;2022-10-18T03:50:12;28.23;;;18.85;;
58472;SDS011;44775;51.564;5.460;2022-10-18T03:52:37;24.88;;;18.30;;
58472;SDS011;44775;51.564;5.460;2022-10-18T03:55:03;25.10;;;17.25;;
58472;SDS011;44775;51.564;5.460;2022-10-18T03:57:28;29.30;;;19.38;;
58472;SDS011;44775;51.564;5.460;2022-10-18T03:59:54;26.95;;;18.23;;
58472;SDS011;44775;51.564;5.460;2022-10-18T04:02:20;33.85;;;20.77;;
58472;SDS011;44775;51.564;5.460;2022-10-18T04:04:45;27.35;;;18.85;;
58472;SDS011;44775;51.564;5.460;2022-10-18T04:07:11;28.70;;;19.27;;
58472;SDS011;44775;51.564;5.460;2022-10-18T04:09:36;26.27;;;19.52;;
58472;SDS011;44775;51.564;5.460;2022-10-18T04:12:01;32.22;;;22.20;;
58472;SDS011;44775;51.564;5.460;2022-10-18T04:14:27;31.70;;;22.08;;
58472;SDS011;44775;51.564;5.460;2022-10-18T04:16:52;37.17;;;21.70;;
58472;SDS011;44775;51.564;5.460;2022-10-18T04:19:18;29.92;;;20.92;;
58472;SDS011;44775;51.564;5.460;2022-10-18T04:21:43;28.98;;;20.45;;
58472;SDS011;44775;51.564;5.460;2022-10-18T04:24:09;29.52;;;20.15;;
58472;SDS011;44775;51.564;5.460;2022-10-18T04:26:34;28.55;;;19.90;;
58472;SDS011;44775;51.564;5.460;2022-10-18T04:29:00;34.72;;;22.25;;
58472;SDS011;44775;51.564;5.460;2022-10-18T04:31:25;38.25;;;23.27;;
58472;SDS011;44775;51.564;5.460;2022-10-18T04:33:51;31.73;;;20.88;;
58472;SDS011;44775;51.564;5.460;2022-10-18T04:36:16;33.80;;;22.08;;
58472;SDS011;44775;51.564;5.460;2022-10-18T04:38:42;29.80;;;21.50;;
58472;SDS011;44775;51.564;5.460;2022-10-18T04:41:07;35.83;;;22.02;;
58472;SDS011;44775;51.564;5.460;2022-10-18T04:43:33;33.50;;;21.33;;
58472;SDS011;44775;51.564;5.460;2022-10-18T04:45:58;33.00;;;20.23;;
58472;SDS011;44775;51.564;5.460;2022-10-18T04:48:24;36.58;;;22.02;;
58472;SDS011;44775;51.564;5.460;2022-10-18T04:50:50;34.85;;;20.05;;
58472;SDS011;44775;51.564;5.460;2022-10-18T04:53:16;28.17;;;20.17;;
58472;SDS011;44775;51.564;5.460;2022-10-18T04:55:43;28.85;;;18.23;;
58472;SDS011;44775;51.564;5.460;2022-10-18T04:58:09;27.17;;;18.92;;
58472;SDS011;44775;51.564;5.460;2022-10-18T05:00:35;30.60;;;19.98;;
58472;SDS011;44775;51.564;5.460;2022-10-18T05:03:01;39.15;;;20.77;;
58472;SDS011;44775;51.564;5.460;2022-10-18T05:05:27;33.40;;;21.55;;
58472;SDS011;44775;51.564;5.460;2022-10-18T05:07:52;30.58;;;20.35;;
58472;SDS011;44775;51.564;5.460;2022-10-18T05:10:18;34.42;;;21.77;;
58472;SDS011;44775;51.564;5.460;2022-10-18T05:12:43;37.03;;;22.40;;
58472;SDS011;44775;51.564;5.460;2022-10-18T05:15:09;45.17;;;24.92;;
58472;SDS011;44775;51.564;5.460;2022-10-18T05:17:34;166.35;;;27.60;;
58472;SDS011;44775;51.564;5.460;2022-10-18T05:20:00;67.88;;;25.88;;
58472;SDS011;44775;51.564;5.460;2022-10-18T05:22:26;67.50;;;22.85;;
58472;SDS011;44775;51.564;5.460;2022-10-18T05:24:51;141.88;;;25.80;;
58472;SDS011;44775;51.564;5.460;2022-10-18T05:27:17;89.75;;;24.35;;
58472;SDS011;44775;51.564;5.460;2022-10-18T05:29:42;214.95;;;27.77;;
58472;SDS011;44775;51.564;5.460;2022-10-18T05:32:07;425.27;;;32.15;;
58472;SDS011;44775;51.564;5.460;2022-10-18T05:34:33;84.35;;;24.00;;
58472;SDS011;44775;51.564;5.460;2022-10-18T05:36:58;190.35;;;25.27;;
58472;SDS011;44775;51.564;5.460;2022-10-18T05:39:24;84.88;;;23.80;;
58472;SDS011;44775;51.564;5.460;2022-10-18T05:41:49;94.07;;;23.92;;
58472;SDS011;44775;51.564;5.460;2022-10-18T05:44:15;56.60;;;22.52;;
58472;SDS011;44775;51.564;5.460;2022-10-18T05:46:40;116.28;;;22.23;;
58472;SDS011;44775;51.564;5.460;2022-10-18T05:49:06;87.72;;;21.20;;
58472;SDS011;44775;51.564;5.460;2022-10-18T05:51:31;100.95;;;22.02;;
58472;SDS011;44775;51.564;5.460;2022-10-18T05:53:57;87.18;;;21.83;;
58472;SDS011;44775;51.564;5.460;2022-10-18T05:56:22;55.22;;;20.55;;
58472;SDS011;44775;51.564;5.460;2022-10-18T05:58:51;60.40;;;20.05;;
58472;SDS011;44775;51.564;5.460;2022-10-18T06:01:17;37.67;;;19.05;;
58472;SDS011;44775;51.564;5.460;2022-10-18T06:03:43;107.43;;;21.85;;
58472;SDS011;44775;51.564;5.460;2022-10-18T06:06:09;235.43;;;25.73;;
58472;SDS011;44775;51.564;5.460;2022-10-18T06:08:36;89.57;;;22.65;;
58472;SDS011;44775;51.564;5.460;2022-10-18T06:11:09;223.05;;;25.30;;
58472;SDS011;44775;51.564;5.460;2022-10-18T06:13:42;34.53;;;20.55;;
58472;SDS011;44775;51.564;5.460;2022-10-18T06:16:09;69.25;;;20.45;;
58472;SDS011;44775;51.564;5.460;2022-10-18T06:18:35;56.55;;;21.13;;
58472;SDS011;44775;51.564;5.460;2022-10-18T06:21:01;396.10;;;31.00;;
58472;SDS011;44775;51.564;5.460;2022-10-18T06:23:27;92.53;;;22.90;;
58472;SDS011;44775;51.564;5.460;2022-10-18T06:25:57;94.70;;;24.60;;
58472;SDS011;44775;51.564;5.460;2022-10-18T06:28:30;62.03;;;22.95;;
58472;SDS011;44775;51.564;5.460;2022-10-18T06:30:57;57.90;;;24.90;;
58472;SDS011;44775;51.564;5.460;2022-10-18T06:33:23;71.40;;;24.75;;
58472;SDS011;44775;51.564;5.460;2022-10-18T06:35:55;286.85;;;32.40;;
58472;SDS011;44775;51.564;5.460;2022-10-18T06:38:22;182.77;;;28.65;;
58472;SDS011;44775;51.564;5.460;2022-10-18T06:40:47;109.25;;;25.17;;
58472;SDS011;44775;51.564;5.460;2022-10-18T06:43:13;119.60;;;27.67;;
58472;SDS011;44775;51.564;5.460;2022-10-18T06:45:38;89.90;;;25.30;;
58472;SDS011;44775;51.564;5.460;2022-10-18T06:48:04;53.38;;;24.70;;
58472;SDS011;44775;51.564;5.460;2022-10-18T06:50:29;72.25;;;24.63;;
58472;SDS011;44775;51.564;5.460;2022-10-18T06:52:55;72.53;;;24.27;;
58472;SDS011;44775;51.564;5.460;2022-10-18T06:55:20;56.00;;;24.55;;
58472;SDS011;44775;51.564;5.460;2022-10-18T06:57:46;61.40;;;23.02;;
58472;SDS011;44775;51.564;5.460;2022-10-18T07:00:11;49.45;;;22.95;;
58472;SDS011;44775;51.564;5.460;2022-10-18T07:02:37;46.45;;;22.48;;
58472;SDS011;44775;51.564;5.460;2022-10-18T07:05:05;56.00;;;24.10;;
58472;SDS011;44775;51.564;5.460;2022-10-18T07:07:32;61.47;;;23.75;;
58472;SDS011;44775;51.564;5.460;2022-10-18T07:09:57;75.32;;;23.40;;
58472;SDS011;44775;51.564;5.460;2022-10-18T07:12:22;61.85;;;22.23;;
58472;SDS011;44775;51.564;5.460;2022-10-18T07:14:48;67.95;;;23.73;;
58472;SDS011;44775;51.564;5.460;2022-10-18T07:17:13;56.40;;;23.85;;
58472;SDS011;44775;51.564;5.460;2022-10-18T07:19:39;65.97;;;24.88;;
58472;SDS011;44775;51.564;5.460;2022-10-18T07:22:04;59.97;;;22.92;;
58472;SDS011;44775;51.564;5.460;2022-10-18T07:24:30;67.57;;;22.35;;
58472;SDS011;44775;51.564;5.460;2022-10-18T07:26:56;68.20;;;21.92;;
58472;SDS011;44775;51.564;5.460;2022-10-18T07:29:21;62.03;;;22.15;;
58472;SDS011;44775;51.564;5.460;2022-10-18T07:31:46;54.67;;;20.92;;
58472;SDS011;44775;51.564;5.460;2022-10-18T07:34:12;46.10;;;22.98;;
58472;SDS011;44775;51.564;5.460;2022-10-18T07:36:37;50.60;;;21.42;;
58472;SDS011;44775;51.564;5.460;2022-10-18T07:39:05;57.03;;;21.30;;
58472;SDS011;44775;51.564;5.460;2022-10-18T07:41:30;55.95;;;21.00;;
58472;SDS011;44775;51.564;5.460;2022-10-18T07:46:25;73.47;;;21.42;;
58472;SDS011;44775;51.564;5.460;2022-10-18T07:48:51;45.80;;;21.08;;
58472;SDS011;44775;51.564;5.460;2022-10-18T07:51:17;48.30;;;21.27;;
58472;SDS011;44775;51.564;5.460;2022-10-18T07:53:44;60.65;;;23.35;;
58472;SDS011;44775;51.564;5.460;2022-10-18T07:56:12;48.25;;;22.77;;
58472;SDS011;44775;51.564;5.460;2022-10-18T07:58:43;43.72;;;24.08;;
58472;SDS011;44775;51.564;5.460;2022-10-18T08:01:09;48.60;;;23.02;;
58472;SDS011;44775;51.564;5.460;2022-10-18T08:03:35;42.38;;;24.23;;
58472;SDS011;44775;51.564;5.460;2022-10-18T08:06:02;46.60;;;26.08;;
58472;SDS011;44775;51.564;5.460;2022-10-18T08:08:29;38.92;;;23.33;;
58472;SDS011;44775;51.564;5.460;2022-10-18T08:10:54;45.47;;;20.80;;
58472;SDS011;44775;51.564;5.460;2022-10-18T08:13:25;40.53;;;22.38;;
58472;SDS011;44775;51.564;5.460;2022-10-18T08:15:55;39.22;;;23.45;;
58472;SDS011;44775;51.564;5.460;2022-10-18T08:18:24;38.60;;;23.15;;
58472;SDS011;44775;51.564;5.460;2022-10-18T08:20:49;36.42;;;21.23;;
58472;SDS011;44775;51.564;5.460;2022-10-18T08:23:15;37.33;;;20.65;;
58472;SDS011;44775;51.564;5.460;2022-10-18T08:25:40;31.67;;;20.92;;
58472;SDS011;44775;51.564;5.460;2022-10-18T08:28:06;36.88;;;21.67;;
58472;SDS011;44775;51.564;5.460;2022-10-18T08:30:32;30.35;;;19.88;;
58472;SDS011;44775;51.564;5.460;2022-10-18T08:32:59;34.63;;;20.10;;
58472;SDS011;44775;51.564;5.460;2022-10-18T08:35:24;35.85;;;19.70;;
58472;SDS011;44775;51.564;5.460;2022-10-18T08:37:50;33.67;;;18.98;;
58472;SDS011;44775;51.564;5.460;2022-10-18T08:40:15;30.67;;;18.98;;
58472;SDS011;44775;51.564;5.460;2022-10-18T08:45:38;28.73;;;18.63;;
58472;SDS011;44775;51.564;5.460;2022-10-18T08:48:06;30.45;;;18.30;;
58472;SDS011;44775;51.564;5.460;2022-10-18T08:50:37;25.85;;;17.17;;
58472;SDS011;44775;51.564;5.460;2022-10-18T08:58:40;21.30;;;14.95;;
58472;SDS011;44775;51.564;5.460;2022-10-18T09:09:37;21.33;;;10.65;;
58472;SDS011;44775;51.564;5.460;2022-10-18T09:20:56;16.60;;;9.95;;
58472;SDS011;44775;51.564;5.460;2022-10-18T09:26:17;17.88;;;9.27;;
58472;SDS011;44775;51.564;5.460;2022-10-18T09:37:00;16.08;;;7.60;;
58472;SDS011;44775;51.564;5.460;2022-10-18T09:39:31;12.65;;;7.65;;
58472;SDS011;44775;51.564;5.460;2022-10-18T09:45:53;13.13;;;7.47;;
58472;SDS011;44775;51.564;5.460;2022-10-18T09:47:51;14.75;;;7.97;;
58472;SDS011;44775;51.564;5.460;2022-10-18T09:50:35;16.95;;;7.25;;
58472;SDS011;44775;51.564;5.460;2022-10-18T09:53:12;15.65;;;8.32;;
58472;SDS011;44775;51.564;5.460;2022-10-18T09:55:50;14.38;;;8.57;;
58472;SDS011;44775;51.564;5.460;2022-10-18T09:58:17;15.40;;;8.32;;
58472;SDS011;44775;51.564;5.460;2022-10-18T10:00:47;18.75;;;8.00;;
58472;SDS011;44775;51.564;5.460;2022-10-18T10:03:15;16.10;;;8.05;;
58472;SDS011;44775;51.564;5.460;2022-10-18T10:05:41;15.82;;;8.27;;
58472;SDS011;44775;51.564;5.460;2022-10-18T10:08:07;13.93;;;7.25;;
58472;SDS011;44775;51.564;5.460;2022-10-18T10:10:33;17.13;;;8.18;;
58472;SDS011;44775;51.564;5.460;2022-10-18T10:13:15;13.48;;;7.55;;
58472;SDS011;44775;51.564;5.460;2022-10-18T10:15:56;13.98;;;8.07;;
58472;SDS011;44775;51.564;5.460;2022-10-18T10:18:26;15.52;;;7.60;;
58472;SDS011;44775;51.564;5.460;2022-10-18T10:20:56;15.50;;;7.70;;
58472;SDS011;44775;51.564;5.460;2022-10-18T10:25:53;14.25;;;7.30;;
58472;SDS011;44775;51.564;5.460;2022-10-18T10:30:47;18.75;;;7.88;;
58472;SDS011;44775;51.564;5.460;2022-10-18T10:33:30;12.82;;;7.38;;
58472;SDS011;44775;51.564;5.460;2022-10-18T10:35:58;14.23;;;7.40;;
58472;SDS011;44775;51.564;5.460;2022-10-18T10:38:26;17.05;;;8.25;;
58472;SDS011;44775;51.564;5.460;2022-10-18T10:40:54;14.40;;;7.85;;
58472;SDS011;44775;51.564;5.460;2022-10-18T10:46:00;14.02;;;6.80;;
58472;SDS011;44775;51.564;5.460;2022-10-18T10:48:32;12.07;;;5.95;;
58472;SDS011;44775;51.564;5.460;2022-10-18T10:51:10;11.98;;;5.70;;
58472;SDS011;44775;51.564;5.460;2022-10-18T10:56:16;9.32;;;4.80;;
58472;SDS011;44775;51.564;5.460;2022-10-18T10:58:46;9.05;;;3.80;;
58472;SDS011;44775;51.564;5.460;2022-10-18T11:01:19;8.10;;;3.10;;
58472;SDS011;44775;51.564;5.460;2022-10-18T11:03:48;8.27;;;3.67;;
58472;SDS011;44775;51.564;5.460;2022-10-18T11:09:10;9.90;;;4.00;;
58472;SDS011;44775;51.564;5.460;2022-10-18T11:11:44;9.15;;;3.40;;
58472;SDS011;44775;51.564;5.460;2022-10-18T11:14:22;6.15;;;2.83;;
58472;SDS011;44775;51.564;5.460;2022-10-18T11:17:10;10.40;;;2.85;;
58472;SDS011;44775;51.564;5.460;2022-10-18T11:22:26;9.65;;;3.33;;
58472;SDS011;44775;51.564;5.460;2022-10-18T11:24:57;10.38;;;2.60;;
58472;SDS011;44775;51.564;5.460;2022-10-18T11:27:27;6.03;;;2.38;;
58472;SDS011;44775;51.564;5.460;2022-10-18T11:30:14;6.45;;;2.42;;
58472;SDS011;44775;51.564;5.460;2022-10-18T11:32:52;7.35;;;2.47;;
58472;SDS011;44775;51.564;5.460;2022-10-18T11:38:06;6.65;;;2.20;;
58472;SDS011;44775;51.564;5.460;2022-10-18T11:40:50;8.65;;;2.70;;
58472;SDS011;44775;51.564;5.460;2022-10-18T11:43:51;9.85;;;2.80;;
58472;SDS011;44775;51.564;5.460;2022-10-18T11:59:36;7.07;;;2.42;;
58472;SDS011;44775;51.564;5.460;2022-10-18T12:02:38;9.13;;;2.28;;
58472;SDS011;44775;51.564;5.460;2022-10-18T12:05:03;7.45;;;2.05;;
58472;SDS011;44775;51.564;5.460;2022-10-18T12:07:30;8.30;;;1.98;;
58472;SDS011;44775;51.564;5.460;2022-10-18T12:10:00;6.90;;;1.70;;
58472;SDS011;44775;51.564;5.460;2022-10-18T12:13:12;9.18;;;1.98;;
58472;SDS011;44775;51.564;5.460;2022-10-18T12:15:19;7.28;;;2.22;;
58472;SDS011;44775;51.564;5.460;2022-10-18T12:17:49;8.02;;;2.50;;
58472;SDS011;44775;51.564;5.460;2022-10-18T12:22:55;8.35;;;2.13;;
58472;SDS011;44775;51.564;5.460;2022-10-18T12:25:27;8.20;;;2.42;;
58472;SDS011;44775;51.564;5.460;2022-10-18T12:30:44;8.57;;;1.95;;
58472;SDS011;44775;51.564;5.460;2022-10-18T12:33:19;9.55;;;2.13;;
58472;SDS011;44775;51.564;5.460;2022-10-18T12:38:39;10.37;;;2.20;;
58472;SDS011;44775;51.564;5.460;2022-10-18T12:41:11;9.85;;;2.15;;
58472;SDS011;44775;51.564;5.460;2022-10-18T12:43:49;10.50;;;1.98;;
58472;SDS011;44775;51.564;5.460;2022-10-18T12:46:16;6.40;;;1.67;;
58472;SDS011;44775;51.564;5.460;2022-10-18T12:48:42;7.95;;;1.90;;
58472;SDS011;44775;51.564;5.460;2022-10-18T12:51:18;8.85;;;1.95;;
58472;SDS011;44775;51.564;5.460;2022-10-18T13:09:42;13.57;;;1.90;;
58472;SDS011;44775;51.564;5.460;2022-10-18T13:18:01;6.88;;;1.70;;
58472;SDS011;44775;51.564;5.460;2022-10-18T13:20:40;7.65;;;2.00;;
58472;SDS011;44775;51.564;5.460;2022-10-18T13:34:32;11.30;;;2.00;;
58472;SDS011;44775;51.564;5.460;2022-10-18T13:39:28;9.73;;;1.80;;
58472;SDS011;44775;51.564;5.460;2022-10-18T13:44:29;6.00;;;1.58;;
58472;SDS011;44775;51.564;5.460;2022-10-18T13:49:32;7.90;;;1.77;;
58472;SDS011;44775;51.564;5.460;2022-10-18T14:06:42;7.50;;;1.50;;
58472;SDS011;44775;51.564;5.460;2022-10-18T14:11:46;6.47;;;1.63;;
58472;SDS011;44775;51.564;5.460;2022-10-18T14:20:02;6.47;;;1.50;;
58472;SDS011;44775;51.564;5.460;2022-10-18T14:25:25;6.85;;;1.30;;
58472;SDS011;44775;51.564;5.460;2022-10-18T14:30:51;8.32;;;1.60;;
58472;SDS011;44775;51.564;5.460;2022-10-18T14:38:34;8.43;;;1.83;;
58472;SDS011;44775;51.564;5.460;2022-10-18T14:41:04;6.55;;;1.50;;
58472;SDS011;44775;51.564;5.460;2022-10-18T14:43:42;7.57;;;1.90;;
58472;SDS011;44775;51.564;5.460;2022-10-18T14:46:08;6.25;;;1.73;;
58472;SDS011;44775;51.564;5.460;2022-10-18T14:51:22;6.32;;;1.30;;
58472;SDS011;44775;51.564;5.460;2022-10-18T14:53:49;4.97;;;1.30;;
58472;SDS011;44775;51.564;5.460;2022-10-18T14:56:38;6.40;;;1.60;;
58472;SDS011;44775;51.564;5.460;2022-10-18T14:59:04;8.68;;;1.50;;
58472;SDS011;44775;51.564;5.460;2022-10-18T15:01:41;8.77;;;1.40;;
58472;SDS011;44775;51.564;5.460;2022-10-18T15:04:25;9.13;;;1.70;;
58472;SDS011;44775;51.564;5.460;2022-10-18T15:07:00;7.63;;;1.50;;
58472;SDS011;44775;51.564;5.460;2022-10-18T15:09:27;8.85;;;1.50;;
58472;SDS011;44775;51.564;5.460;2022-10-18T15:11:54;9.40;;;1.52;;
58472;SDS011;44775;51.564;5.460;2022-10-18T15:14:21;8.13;;;1.67;;
58472;SDS011;44775;51.564;5.460;2022-10-18T15:16:50;7.50;;;1.45;;
58472;SDS011;44775;51.564;5.460;2022-10-18T15:27:45;11.52;;;1.80;;
58472;SDS011;44775;51.564;5.460;2022-10-18T15:29:54;7.72;;;1.70;;
58472;SDS011;44775;51.564;5.460;2022-10-18T15:32:23;6.00;;;1.42;;
58472;SDS011;44775;51.564;5.460;2022-10-18T15:34:54;8.90;;;1.40;;
58472;SDS011;44775;51.564;5.460;2022-10-18T15:37:39;9.73;;;1.58;;
58472;SDS011;44775;51.564;5.460;2022-10-18T15:42:54;10.38;;;1.73;;
58472;SDS011;44775;51.564;5.460;2022-10-18T15:47:59;6.78;;;1.65;;
58472;SDS011;44775;51.564;5.460;2022-10-18T15:50:48;4.25;;;1.38;;
58472;SDS011;44775;51.564;5.460;2022-10-18T15:56:46;9.68;;;1.65;;
58472;SDS011;44775;51.564;5.460;2022-10-18T15:58:49;8.82;;;1.52;;
58472;SDS011;44775;51.564;5.460;2022-10-18T16:01:16;5.18;;;1.50;;
58472;SDS011;44775;51.564;5.460;2022-10-18T16:03:44;11.20;;;2.00;;
58472;SDS011;44775;51.564;5.460;2022-10-18T16:06:11;9.18;;;1.95;;
58472;SDS011;44775;51.564;5.460;2022-10-18T16:08:39;9.05;;;1.90;;
58472;SDS011;44775;51.564;5.460;2022-10-18T16:11:07;8.40;;;1.60;;
58472;SDS011;44775;51.564;5.460;2022-10-18T16:13:38;8.13;;;2.05;;
58472;SDS011;44775;51.564;5.460;2022-10-18T16:16:03;7.05;;;1.55;;
58472;SDS011;44775;51.564;5.460;2022-10-18T16:18:29;5.95;;;1.58;;
58472;SDS011;44775;51.564;5.460;2022-10-18T16:20:54;4.45;;;1.42;;
58472;SDS011;44775;51.564;5.460;2022-10-18T16:23:22;7.80;;;1.70;;
58472;SDS011;44775;51.564;5.460;2022-10-18T16:28:15;8.50;;;2.00;;
58472;SDS011;44775;51.564;5.460;2022-10-18T16:30:44;7.43;;;1.85;;
58472;SDS011;44775;51.564;5.460;2022-10-18T16:33:18;8.10;;;1.98;;
58472;SDS011;44775;51.564;5.460;2022-10-18T16:35:44;6.32;;;2.15;;
58472;SDS011;44775;51.564;5.460;2022-10-18T16:40:55;6.38;;;2.03;;
58472;SDS011;44775;51.564;5.460;2022-10-18T16:43:21;9.80;;;2.80;;
58472;SDS011;44775;51.564;5.460;2022-10-18T16:45:48;7.88;;;2.63;;
58472;SDS011;44775;51.564;5.460;2022-10-18T16:48:15;8.10;;;2.65;;
58472;SDS011;44775;51.564;5.460;2022-10-18T16:50:43;10.35;;;3.25;;
58472;SDS011;44775;51.564;5.460;2022-10-18T16:53:09;9.82;;;4.32;;
58472;SDS011;44775;51.564;5.460;2022-10-18T16:55:35;11.70;;;4.20;;
58472;SDS011;44775;51.564;5.460;2022-10-18T16:58:02;12.82;;;3.38;;
58472;SDS011;44775;51.564;5.460;2022-10-18T17:00:27;12.13;;;4.40;;
58472;SDS011;44775;51.564;5.460;2022-10-18T17:02:53;12.88;;;4.53;;
58472;SDS011;44775;51.564;5.460;2022-10-18T17:05:18;17.15;;;3.75;;
58472;SDS011;44775;51.564;5.460;2022-10-18T17:07:44;8.57;;;3.80;;
58472;SDS011;44775;51.564;5.460;2022-10-18T17:10:14;11.10;;;3.78;;
58472;SDS011;44775;51.564;5.460;2022-10-18T17:12:41;10.95;;;4.03;;
58472;SDS011;44775;51.564;5.460;2022-10-18T17:15:08;9.43;;;3.65;;
58472;SDS011;44775;51.564;5.460;2022-10-18T17:17:34;8.77;;;3.60;;
58472;SDS011;44775;51.564;5.460;2022-10-18T17:20:00;10.10;;;4.07;;
58472;SDS011;44775;51.564;5.460;2022-10-18T17:22:26;11.63;;;4.45;;
58472;SDS011;44775;51.564;5.460;2022-10-18T17:24:51;12.40;;;5.03;;
58472;SDS011;44775;51.564;5.460;2022-10-18T17:27:17;11.98;;;4.68;;
58472;SDS011;44775;51.564;5.460;2022-10-18T17:29:42;13.27;;;4.82;;
58472;SDS011;44775;51.564;5.460;2022-10-18T17:32:08;9.60;;;4.65;;
58472;SDS011;44775;51.564;5.460;2022-10-18T17:34:33;11.00;;;4.65;;
58472;SDS011;44775;51.564;5.460;2022-10-18T17:37:00;13.88;;;6.68;;
58472;SDS011;44775;51.564;5.460;2022-10-18T17:39:29;15.15;;;5.90;;
58472;SDS011;44775;51.564;5.460;2022-10-18T17:41:54;11.98;;;5.43;;
58472;SDS011;44775;51.564;5.460;2022-10-18T17:44:20;11.65;;;4.50;;
58472;SDS011;44775;51.564;5.460;2022-10-18T17:46:46;10.90;;;4.57;;
58472;SDS011;44775;51.564;5.460;2022-10-18T17:49:12;11.77;;;5.10;;
58472;SDS011;44775;51.564;5.460;2022-10-18T17:51:39;16.17;;;5.57;;
58472;SDS011;44775;51.564;5.460;2022-10-18T17:54:05;19.83;;;4.78;;
58472;SDS011;44775;51.564;5.460;2022-10-18T17:56:31;9.18;;;4.60;;